Time;durP1;ratioP1;P1;durP2;ratioP2;P2;SDS_P1;SDS_P2;PMS_P1;PMS_P2;Temp;Humidity;BMP_temperature;BMP_pressure;BME280_temperature;BME280_humidity;BME280_pressure;Samples;Min_cycle;Max_cycle;Signal;HPM_P1;HPM_P2
2022/03/07 00:02:31;;;;;;;15.52;8.30;;;;;;;-3.25;64.81;92486.50;5039001;28;20054;-90
2022/03/07 00:05:28;;;;;;;;;;;;;;;;;;;;;
2022/03/07 00:14:11;;;;;;;19.50;9.13;;;;;;;-3.60;64.55;92450.97;5054710;28;20041;-90
2022/03/07 00:17:28;;;;;;;18.20;9.27;;;;;;;-3.21;64.92;92508.16;5043517;28;20041;-91
2022/03/07 00:20:05;;;;;;;20.15;8.43;;;;;;;-3.62;65.17;92455.50;5027052;28;20033;-90
2022/03/07 00:26:10;;;;;;;18.38;8.70;;;;;;;-3.65;64.94;92455.09;5052979;28;20053;-90
2022/03/07 00:28:59;;;;;;;15.23;8.25;;;;;;;-3.47;64.92;92473.16;5070316;28;20478;-89
2022/03/07 00:31:45;;;;;;;18.23;9.27;;;;;;;-3.53;65.06;92468.06;5054870;28;20052;-91
2022/03/07 00:34:48;;;;;;;;;;;;;;;;;;;;;
2022/03/07 00:38:05;;;;;;;15.50;8.23;;;;;;;-3.68;65.02;92451.19;5047060;28;20045;-90
2022/03/07 00:41:23;;;;;;;16.20;8.55;;;;;;;-3.70;65.38;92453.16;5036557;28;20039;-90
2022/03/07 00:44:16;;;;;;;;;;;;;;;-3.30;65.70;92519.63;5010802;28;20040;-91
2022/03/07 00:46:57;;;;;;;16.88;8.98;;;;;;;-3.33;65.53;92514.91;5020203;28;19912;-90
2022/03/07 00:53:14;;;;;;;14.70;8.15;;;;;;;-3.48;65.46;92501.53;5036436;28;20103;-91
2022/03/07 00:56:13;;;;;;;;;;;;;;;;;;;;;
2022/03/07 00:59:18;;;;;;;16.13;8.40;;;;;;;-3.51;65.65;92507.84;5059343;28;20037;-91
2022/03/07 01:02:25;;;;;;;21.38;9.00;;;;;;;-3.57;65.82;92494.06;5052358;28;20060;-92
2022/03/07 01:05:23;;;;;;;;;;;;;;;;;;;;;
2022/03/07 01:08:29;;;;;;;;;;;;;;;;;;;;;
2022/03/07 01:11:31;;;;;;;;;;;;;;;;;;;;;
2022/03/07 01:14:11;;;;;;;16.23;8.32;;;;;;;-3.84;66.04;92456.72;5047905;28;20532;-89
2022/03/07 01:16:50;;;;;;;18.33;9.02;;;;;;;-3.86;65.73;92453.59;5052555;28;20095;-90
2022/03/07 01:19:33;;;;;;;15.88;8.88;;;;;;;-3.61;66.10;92497.22;5032745;28;20562;-92
2022/03/07 01:22:35;;;;;;;17.63;8.98;;;;;;;-3.58;66.32;92501.94;5034918;28;20098;-90
2022/03/07 01:25:36;;;;;;;19.92;8.73;;;;;;;-3.68;65.78;92481.88;5037254;28;20095;-89
2022/03/07 01:28:38;;;;;;;19.23;8.88;;;;;;;-3.84;66.10;92456.72;5040086;28;20131;-91
2022/03/07 01:31:34;;;;;;;;;;;;;;;;;;;;;
2022/03/07 01:35:13;;;;;;;19.67;8.95;;;;;;;-3.56;66.06;92495.66;5030217;28;20042;-92
2022/03/07 01:37:54;;;;;;;14.45;8.00;;;;;;;-3.90;65.82;92447.28;5032379;28;20035;-91
2022/03/07 01:43:57;;;;;;;15.60;8.00;;;;;;;-3.87;66.14;92441.75;5031486;28;20049;-91
2022/03/07 01:46:55;;;;;;;;;;;;;;;;;;;;;
2022/03/07 01:49:54;;;;;;;16.02;8.45;;;;;;;-3.87;66.75;92437.44;5035496;28;20044;-90
2022/03/07 01:52:29;;;;;;;17.73;8.05;;;;;;;-3.89;66.56;92434.31;5018585;28;20036;-90
2022/03/07 01:54:58;;;;;;;20.10;8.27;;;;;;;-3.88;65.60;92427.41;5018878;28;20041;-91
2022/03/07 01:58:07;;;;;;;15.80;8.50;;;;;;;-3.93;66.14;92432.34;5035567;28;20045;-91
2022/03/07 02:01:09;;;;;;;15.30;8.40;;;;;;;-3.67;66.42;92473.25;5037347;28;20048;-90
2022/03/07 02:03:53;;;;;;;16.15;8.02;;;;;;;-3.69;66.10;92470.09;5044539;28;20156;-91
2022/03/07 02:07:10;;;;;;;;;;;;;;;;;;;;;
2022/03/07 02:10:31;;;;;;;17.98;7.60;;;;;;;-3.50;65.99;92493.28;5093093;28;20043;-91
2022/03/07 02:13:41;;;;;;;14.48;8.32;;;;;;;-3.52;66.17;92492.69;5062392;28;20047;-91
2022/03/07 02:19:16;;;;;;;17.38;7.95;;;;;;;-3.81;66.38;92451.19;5061698;28;20059;-90
2022/03/07 02:25:42;;;;;;;16.08;8.35;;;;;;;-3.56;66.42;92493.09;5064691;28;20047;-90
2022/03/07 02:32:12;;;;;;;13.30;7.22;;;;;;;-4.03;66.91;92425.88;5036055;28;20040;-90
2022/03/07 02:35:08;;;;;;;20.42;8.13;;;;;;;-3.74;67.29;92469.88;5073565;28;20043;-89
2022/03/07 02:38:29;;;;;;;;;;;;;;;;;;;;;
2022/03/07 02:44:59;;;;;;;14.18;7.72;;;;;;;-4.06;66.64;92428.81;5085583;28;20070;-91
2022/03/07 02:48:04;;;;;;;14.45;7.50;;;;;;;-3.79;66.97;92459.47;5076045;28;20035;-90
2022/03/07 02:51:01;;;;;;;20.73;8.50;;;;;;;-4.01;66.93;92431.56;5062099;28;20106;-90
2022/03/07 02:53:36;;;;;;;16.02;8.38;;;;;;;-4.04;67.24;92429.41;5074857;28;20066;-89
2022/03/07 02:56:44;;;;;;;15.50;8.10;;;;;;;-3.86;67.11;92453.59;5058496;28;20040;-90
2022/03/07 02:59:29;;;;;;;20.75;7.85;;;;;;;-4.04;66.78;92428.63;5056591;28;20405;-91
2022/03/07 03:02:29;;;;;;;;;;;;;;;;;;;;;
2022/03/07 03:05:41;;;;;;;;;;;;;;;;;;;;;
2022/03/07 03:08:50;;;;;;;;;;;;;;;;;;;;;
2022/03/07 03:12:02;;;;;;;17.35;9.27;;;;;;;-4.09;67.25;92421.53;5046433;28;20101;-89
2022/03/07 03:14:53;;;;;;;;;;;;;;;;;;;;;
2022/03/07 03:17:37;;;;;;;16.35;8.10;;;;;;;-4.10;67.58;92427.63;5077916;28;20040;-90
2022/03/07 03:20:29;;;;;;;18.08;8.27;;;;;;;-3.72;67.19;92485.03;5046972;28;20443;-89
2022/03/07 03:23:22;;;;;;;19.10;9.15;;;;;;;-3.88;67.63;92460.66;5042889;28;20048;-89
2022/03/07 03:29:12;;;;;;;14.00;7.55;;;;;;;-4.16;67.21;92422.53;5062830;28;20373;-89
2022/03/07 03:32:11;;;;;;;14.65;8.35;;;;;;;-3.90;67.71;92462.63;5060116;28;20032;-92
2022/03/07 03:34:55;;;;;;;15.77;8.63;;;;;;;-4.19;67.59;92421.16;5093252;28;20032;-90
2022/03/07 03:37:56;;;;;;;;;;;;;;;;;;;;;
2022/03/07 03:40:45;;;;;;;17.65;9.35;;;;;;;-4.11;67.69;92438.06;5041501;28;20039;-89
2022/03/07 03:44:03;;;;;;;16.33;8.20;;;;;;;-4.13;67.52;92438.25;5047278;28;20048;-92
2022/03/07 03:46:54;;;;;;;14.52;8.00;;;;;;;-4.26;67.71;92420.38;5076738;28;20043;-90
2022/03/07 03:50:06;;;;;;;18.73;8.15;;;;;;;-4.26;67.94;92426.25;5078605;28;20074;-90
2022/03/07 03:52:54;;;;;;;;;;;;;;;;;;;;;
2022/03/07 03:55:36;;;;;;;18.63;8.77;;;;;;;-4.22;67.60;92434.34;5092801;28;20043;-90
2022/03/07 04:01:16;;;;;;;16.40;8.50;;;;;;;-4.29;68.27;92419.00;5060661;28;20083;-91
2022/03/07 04:03:56;;;;;;;23.95;9.38;;;;;;;-4.28;67.78;92420.59;5044984;28;20555;-89
2022/03/07 04:09:49;;;;;;;17.52;8.10;;;;;;;-4.04;67.69;92460.09;5087818;28;20052;-90
2022/03/07 04:12:40;;;;;;;27.67;10.90;;;;;;;-4.31;67.92;92415.06;5074505;28;20048;-90
2022/03/07 04:16:03;;;;;;;22.05;9.70;;;;;;;-4.32;67.73;92419.41;5062558;28;20035;-89
2022/03/07 04:19:22;;;;;;;18.63;8.68;;;;;;;-4.36;67.90;92410.56;5083955;28;20125;-90
2022/03/07 04:22:25;;;;;;;;;;;;;;;;;;;;;
2022/03/07 04:25:20;;;;;;;18.85;9.13;;;;;;;-4.31;67.99;92427.84;5078313;28;20058;-89
2022/03/07 04:28:39;;;;;;;13.75;8.38;;;;;;;-4.37;67.97;92426.84;5081337;28;20024;-91
2022/03/07 04:31:10;;;;;;;17.80;8.40;;;;;;;-4.45;68.62;92409.97;5043710;28;20075;-89
2022/03/07 04:34:12;;;;;;;15.55;8.15;;;;;;;-4.46;68.20;92413.50;5041951;28;20037;-90
2022/03/07 04:36:52;;;;;;;16.85;8.80;;;;;;;-4.20;68.47;92453.59;5072910;28;20040;-89
2022/03/07 04:39:42;;;;;;;18.30;8.82;;;;;;;-4.54;68.86;92400.13;5047482;28;20101;-89
2022/03/07 04:45:31;;;;;;;18.65;9.05;;;;;;;-4.07;68.33;92475.06;5065439;28;20048;-90
2022/03/07 04:48:25;;;;;;;;;;;;;;;;;;;;;
2022/03/07 04:51:15;;;;;;;17.58;8.82;;;;;;;-4.16;68.44;92466.00;5074685;28;20032;-90
2022/03/07 04:54:20;;;;;;;;;;;;;;;;;;;;;
2022/03/07 04:57:13;;;;;;;16.95;8.68;;;;;;;-4.48;68.12;92433.38;5089412;28;20036;-89
2022/03/07 05:00:16;;;;;;;16.42;8.35;;;;;;;-4.58;69.08;92407.41;5081881;28;20036;-90
2022/03/07 05:03:22;;;;;;;;;;;;;;;;;;;;;
2022/03/07 05:06:15;;;;;;;17.88;8.73;;;;;;;-4.51;69.29;92415.84;5075154;28;20040;-90
2022/03/07 05:12:43;;;;;;;15.13;7.97;;;;;;;-4.09;68.84;92489.81;5067655;28;20044;-90
2022/03/07 05:15:52;;;;;;;;;;;;;;;;;;;;;
2022/03/07 05:19:00;;;;;;;17.95;9.07;;;;;;;-4.58;69.58;92417.63;5076423;28;20040;-91
2022/03/07 05:21:39;;;;;;;;;;;;;;;;;;;;;
2022/03/07 05:25:08;;;;;;;;;;;;;;;;;;;;;
2022/03/07 05:28:10;;;;;;;;;;;;;;;;;;;;;
2022/03/07 05:31:19;;;;;;;;;;;;;;;;;;;;;
2022/03/07 05:34:28;;;;;;;16.30;8.02;;;;;;;-4.58;69.67;92430.41;5074433;28;20392;-89
2022/03/07 05:37:26;;;;;;;17.83;8.55;;;;;;;-4.59;69.35;92433.94;5044357;28;20036;-90
2022/03/07 05:40:28;;;;;;;18.73;9.13;;;;;;;-4.29;69.63;92474.44;5062108;28;20507;-90
2022/03/07 05:43:07;;;;;;;18.38;8.25;;;;;;;-4.63;69.84;92437.88;5044991;28;20040;-89
2022/03/07 05:46:20;;;;;;;16.70;8.52;;;;;;;-4.37;69.96;92477.19;5071586;28;20160;-88
2022/03/07 05:49:02;;;;;;;18.83;8.55;;;;;;;-4.66;70.28;92440.78;5074056;28;20033;-85
2022/03/07 05:51:31;;;;;;;22.65;8.43;;;;;;;-4.73;70.26;92428.00;5056101;28;20040;-84
2022/03/07 05:54:07;;;;;;;17.13;8.60;;;;;;;-4.31;69.91;92495.09;5093091;28;20491;-84
2022/03/07 05:56:38;;;;;;;15.82;8.38;;;;;;;-4.55;70.20;92459.88;5069440;28;20109;-86
2022/03/07 05:59:13;;;;;;;19.48;8.52;;;;;;;-4.60;69.86;92451.00;5070456;28;20048;-87
2022/03/07 06:01:42;;;;;;;14.55;8.30;;;;;;;-4.45;70.34;92461.06;5070080;28;20109;-85
2022/03/07 06:04:08;;;;;;;17.58;8.70;;;;;;;-4.53;69.93;92448.47;5073259;28;20490;-86
2022/03/07 06:06:37;;;;;;;19.95;7.90;;;;;;;-4.12;70.00;92496.09;5044872;28;20393;-85
2022/03/07 06:09:08;;;;;;;19.20;8.73;;;;;;;-4.12;69.22;92434.72;5073972;28;20047;-84
2022/03/07 06:11:34;;;;;;;17.50;9.13;;;;;;;-3.23;67.05;92458.16;5057008;28;20043;-87
2022/03/07 06:14:04;;;;;;;19.17;9.07;;;;;;;-2.51;64.65;92451.88;5073962;28;20028;-86
2022/03/07 06:16:37;;;;;;;17.38;9.20;;;;;;;-1.85;61.88;92436.19;5073210;28;20038;-85
2022/03/07 06:19:03;;;;;;;20.08;9.38;;;;;;;-0.77;59.32;92497.25;5056511;28;20134;-83
2022/03/07 06:21:29;;;;;;;18.52;9.25;;;;;;;-0.14;57.17;92498.59;5057319;28;20055;-88
2022/03/07 06:23:54;;;;;;;17.10;9.35;;;;;;;0.37;55.59;92509.34;5058447;28;20047;-83
2022/03/07 06:26:20;;;;;;;17.77;9.30;;;;;;;0.90;53.58;92503.28;5057897;28;20040;-84
2022/03/07 06:28:45;;;;;;;17.52;9.20;;;;;;;1.39;51.79;92482.31;5074764;28;20051;-85
2022/03/07 06:31:11;;;;;;;16.65;8.45;;;;;;;2.16;50.69;92487.00;5058078;28;20040;-84
2022/03/07 06:33:37;;;;;;;18.75;9.15;;;;;;;3.13;48.89;92503.91;5074586;28;20075;-85
2022/03/07 06:36:05;;;;;;;18.75;8.75;;;;;;;3.89;46.09;92498.00;5092692;28;20040;-84
2022/03/07 06:38:31;;;;;;;15.75;9.25;;;;;;;4.50;45.20;92486.59;5092032;28;20078;-83
2022/03/07 06:40:57;;;;;;;20.75;10.05;;;;;;;5.26;43.12;92498.47;5074852;28;20036;-84
2022/03/07 06:43:22;;;;;;;17.50;9.35;;;;;;;5.96;41.93;92496.38;5057837;28;20442;-85
2022/03/07 06:45:48;;;;;;;18.75;9.75;;;;;;;6.75;39.95;92497.72;5057621;28;20385;-86
2022/03/07 06:48:13;;;;;;;18.95;9.52;;;;;;;7.40;38.25;92494.47;5074257;28;20043;-85
2022/03/07 06:50:39;;;;;;;18.77;9.65;;;;;;;8.05;37.17;92503.03;5040857;28;20041;-84
2022/03/07 06:53:05;;;;;;;16.80;9.48;;;;;;;8.49;35.44;92494.44;5073302;28;20485;-84
2022/03/07 06:55:30;;;;;;;17.45;9.32;;;;;;;9.17;34.41;92519.72;5023436;28;20073;-85
2022/03/07 06:57:56;;;;;;;19.75;10.05;;;;;;;9.75;33.26;92500.53;5059984;28;20166;-84
2022/03/07 07:00:22;;;;;;;17.75;9.27;;;;;;;10.29;32.40;92503.00;5069420;28;20032;-84
2022/03/07 07:02:47;;;;;;;16.25;9.30;;;;;;;10.35;31.71;92522.81;5073219;28;20052;-85
2022/03/07 07:05:14;;;;;;;18.55;9.95;;;;;;;10.66;31.37;92522.38;5057260;28;20104;-88
2022/03/07 07:07:40;;;;;;;17.27;9.93;;;;;;;10.90;31.07;92509.94;5032971;28;20037;-88
2022/03/07 07:10:07;;;;;;;18.30;10.77;;;;;;;11.63;30.43;92512.88;5054543;28;20530;-89
2022/03/07 07:12:34;;;;;;;17.13;10.27;;;;;;;12.10;29.84;92513.53;5064012;28;20051;-88
2022/03/07 07:15:00;;;;;;;19.88;10.48;;;;;;;13.03;28.46;92505.16;5041061;28;20078;-88
2022/03/07 07:17:25;;;;;;;17.15;9.80;;;;;;;13.24;27.19;92526.47;5071233;28;20677;-89
2022/03/07 07:19:51;;;;;;;19.75;11.20;;;;;;;13.38;27.39;92515.88;5021520;28;20466;-89
2022/03/07 07:22:16;;;;;;;18.63;10.00;;;;;;;14.04;26.89;92531.75;5070708;28;20036;-88
2022/03/07 07:24:43;;;;;;;19.67;11.45;;;;;;;14.87;25.51;92514.38;5054135;28;20114;-89
2022/03/07 07:27:09;;;;;;;18.77;10.20;;;;;;;14.21;25.26;92523.13;5072375;28;20074;-88
2022/03/07 07:29:34;;;;;;;19.13;11.20;;;;;;;14.34;25.69;92513.53;5021604;28;20657;-91
2022/03/07 07:32:02;;;;;;;17.40;10.82;;;;;;;15.12;24.97;92518.81;5056910;28;20034;-88
2022/03/07 07:34:28;;;;;;;22.48;11.35;;;;;;;14.09;25.54;92520.31;5074617;28;20112;-88
2022/03/07 07:36:53;;;;;;;17.35;10.75;;;;;;;14.19;25.31;92530.56;5074270;28;20047;-87
2022/03/07 07:39:19;;;;;;;16.05;10.15;;;;;;;13.49;26.59;92530.31;5074939;28;20043;-88
2022/03/07 07:41:45;;;;;;;19.42;10.80;;;;;;;12.20;27.83;92533.53;5072989;28;20028;-88
2022/03/07 07:44:10;;;;;;;20.65;11.32;;;;;;;11.10;29.85;92527.19;5074541;28;20402;-89
2022/03/07 07:46:36;;;;;;;21.05;11.13;;;;;;;9.35;33.09;92538.34;5065501;28;20063;-91
2022/03/07 07:49:02;;;;;;;20.75;12.13;;;;;;;7.63;35.42;92530.34;5055724;28;20127;-88
2022/03/07 07:51:27;;;;;;;18.65;10.02;;;;;;;6.50;38.33;92554.97;5062130;28;20043;-87
2022/03/07 07:53:55;;;;;;;21.63;10.60;;;;;;;5.95;40.02;92547.56;5095331;28;20036;-88
2022/03/07 07:56:22;;;;;;;19.95;11.30;;;;;;;5.96;40.84;92559.50;5061956;28;20070;-88
2022/03/07 07:58:48;;;;;;;29.23;10.52;;;;;;;5.59;40.98;92539.63;5028344;28;20035;-87
2022/03/07 08:01:14;;;;;;;26.65;10.75;;;;;;;5.08;43.02;92552.34;5061518;28;20135;-88
2022/03/07 08:03:40;;;;;;;23.63;10.73;;;;;;;5.08;43.14;92575.69;5063720;28;20047;-88
2022/03/07 08:06:05;;;;;;;25.33;10.55;;;;;;;5.00;43.00;92574.34;5060175;28;20152;-88
2022/03/07 08:08:31;;;;;;;20.60;11.13;;;;;;;4.80;41.60;92564.59;5057531;28;20031;-88
2022/03/07 08:10:56;;;;;;;21.80;10.00;;;;;;;5.01;41.78;92575.13;5043390;28;20040;-89
2022/03/07 08:13:22;;;;;;;20.70;10.43;;;;;;;4.32;43.02;92563.69;5051038;28;20047;-88
2022/03/07 08:15:47;;;;;;;16.85;8.40;;;;;;;4.13;42.34;92567.66;5067884;28;20048;-89
2022/03/07 08:18:13;;;;;;;17.08;9.68;;;;;;;4.14;43.38;92574.38;5060093;28;20051;-88
2022/03/07 08:20:38;;;;;;;21.13;9.98;;;;;;;4.21;43.40;92561.25;5060208;28;20130;-87
2022/03/07 08:23:05;;;;;;;17.58;10.23;;;;;;;4.40;43.45;92564.28;5075871;28;20519;-90
2022/03/07 08:25:32;;;;;;;22.17;10.20;;;;;;;4.30;43.61;92570.13;5075290;28;20059;-88
2022/03/07 08:27:59;;;;;;;19.98;9.88;;;;;;;4.43;42.98;92568.97;5040142;28;20562;-88
2022/03/07 08:30:26;;;;;;;16.83;9.45;;;;;;;4.48;42.28;92569.81;5056781;28;20123;-88
2022/03/07 08:32:53;;;;;;;14.93;8.07;;;;;;;3.55;43.63;92534.41;5043343;28;20557;-88
2022/03/07 08:35:19;;;;;;;19.55;10.18;;;;;;;3.87;44.71;92556.22;5068100;28;20028;-89
2022/03/07 08:37:47;;;;;;;18.95;9.60;;;;;;;3.05;46.20;92573.34;5055744;28;20044;-89
2022/03/07 08:40:15;;;;;;;19.98;10.80;;;;;;;3.34;45.22;92571.41;5071897;28;20036;-88
2022/03/07 08:42:41;;;;;;;18.27;10.27;;;;;;;3.45;45.21;92549.03;5076505;28;20036;-89
2022/03/07 08:45:07;;;;;;;18.45;9.40;;;;;;;3.17;46.39;92565.50;5094341;28;20036;-89
2022/03/07 08:47:35;;;;;;;18.02;9.40;;;;;;;3.14;46.35;92569.34;5072534;28;20034;-88
2022/03/07 08:50:01;;;;;;;21.30;10.77;;;;;;;3.11;47.02;92554.31;5040537;28;20040;-88
2022/03/07 08:52:27;;;;;;;16.80;8.02;;;;;;;3.42;45.82;92559.84;5058119;28;20117;-88
2022/03/07 08:54:55;;;;;;;18.00;9.63;;;;;;;3.28;46.54;92574.94;5080309;28;20499;-90
2022/03/07 08:57:20;;;;;;;14.65;8.00;;;;;;;3.73;44.17;92573.94;5074737;28;20043;-87
2022/03/07 08:59:48;;;;;;;16.90;9.05;;;;;;;3.64;46.09;92572.81;5054215;28;20056;-88
2022/03/07 09:02:14;;;;;;;22.10;9.70;;;;;;;3.29;46.07;92576.53;5052870;28;20052;-89
2022/03/07 09:04:40;;;;;;;17.00;9.75;;;;;;;3.58;45.16;92579.75;5076082;28;20101;-89
2022/03/07 09:07:06;;;;;;;17.48;9.40;;;;;;;3.52;45.76;92565.16;5077157;28;20040;-88
2022/03/07 09:09:32;;;;;;;18.45;9.90;;;;;;;3.34;45.72;92564.44;5075952;28;20028;-89
2022/03/07 09:11:58;;;;;;;24.58;10.88;;;;;;;3.48;45.97;92559.69;5093691;28;20035;-88
2022/03/07 09:14:24;;;;;;;16.40;9.23;;;;;;;3.37;44.88;92562.38;5094275;28;20044;-88
2022/03/07 09:16:49;;;;;;;23.80;11.20;;;;;;;3.47;45.89;92578.06;5077250;28;20051;-89
2022/03/07 09:19:15;;;;;;;17.20;9.73;;;;;;;4.03;44.88;92549.41;5077356;28;20491;-91
2022/03/07 09:21:43;;;;;;;23.05;9.95;;;;;;;4.08;43.53;92542.47;5059782;28;20498;-90
2022/03/07 09:24:08;;;;;;;19.95;10.13;;;;;;;3.54;43.58;92509.53;5076915;28;20135;-88
2022/03/07 09:26:34;;;;;;;15.30;8.40;;;;;;;4.17;43.22;92568.75;5077056;28;20105;-88
2022/03/07 09:29:00;;;;;;;19.65;10.18;;;;;;;3.84;44.10;92557.50;5077549;28;20043;-88
2022/03/07 09:31:26;;;;;;;22.20;9.93;;;;;;;3.59;45.37;92557.22;5043834;28;20048;-88
2022/03/07 09:33:51;;;;;;;23.23;10.15;;;;;;;3.24;46.54;92581.63;5076410;28;20016;-88
2022/03/07 09:36:17;;;;;;;16.05;8.32;;;;;;;3.70;45.23;92570.03;5059853;28;20508;-87
2022/03/07 09:38:43;;;;;;;14.82;7.57;;;;;;;3.09;45.84;92570.06;5077396;28;20118;-89
2022/03/07 09:41:09;;;;;;;19.98;10.10;;;;;;;3.56;45.54;92561.09;5064498;28;20028;-89
2022/03/07 09:43:36;;;;;;;17.70;10.07;;;;;;;3.77;44.42;92564.69;5056774;28;20401;-88
2022/03/07 09:46:01;;;;;;;17.52;10.10;;;;;;;4.33;44.73;92583.41;5056415;28;20071;-88
2022/03/07 09:48:27;;;;;;;16.33;8.20;;;;;;;4.12;44.64;92572.06;5089647;28;20447;-88
2022/03/07 09:50:55;;;;;;;16.42;8.85;;;;;;;3.52;44.75;92527.13;5059721;28;20043;-88
2022/03/07 09:53:23;;;;;;;22.08;10.07;;;;;;;3.89;45.99;92565.31;5060477;28;20050;-87
2022/03/07 09:55:49;;;;;;;19.40;9.52;;;;;;;4.21;45.00;92575.00;5059506;28;20040;-88
2022/03/07 09:58:15;;;;;;;19.02;9.95;;;;;;;3.71;45.92;92586.34;5076524;28;20016;-88
2022/03/07 10:00:42;;;;;;;14.68;8.70;;;;;;;3.66;45.20;92550.06;5042712;28;20040;-88
2022/03/07 10:03:18;;;;;;;22.70;10.05;;;;;;;4.08;44.57;92581.34;5059465;28;20043;-87
2022/03/07 10:05:48;;;;;;;20.17;10.35;;;;;;;4.11;44.99;92556.75;5076420;28;20036;-90
2022/03/07 10:08:26;;;;;;;20.30;9.45;;;;;;;4.47;43.96;92557.09;5075712;28;20040;-87
2022/03/07 10:10:52;;;;;;;22.83;9.95;;;;;;;4.62;43.73;92575.38;5093766;28;20481;-88
2022/03/07 10:13:19;;;;;;;17.83;9.07;;;;;;;4.52;43.94;92564.88;5074913;28;20032;-89
2022/03/07 10:15:55;;;;;;;19.48;10.70;;;;;;;4.68;43.30;92570.97;5048967;28;20055;-88
2022/03/07 10:18:23;;;;;;;19.20;9.73;;;;;;;4.70;44.26;92567.13;5056538;28;20070;-88
2022/03/07 10:20:53;;;;;;;22.98;10.15;;;;;;;4.98;43.15;92575.63;5056326;28;20184;-89
2022/03/07 10:23:20;;;;;;;19.95;10.27;;;;;;;5.74;41.01;92567.50;5039687;28;20063;-88
2022/03/07 10:25:46;;;;;;;16.48;9.25;;;;;;;5.43;41.46;92579.53;5048331;28;20036;-90
2022/03/07 10:28:12;;;;;;;18.70;10.50;;;;;;;5.20;42.36;92576.31;5075885;28;20089;-89
2022/03/07 10:30:39;;;;;;;25.42;10.98;;;;;;;4.27;43.44;92568.81;5025941;28;20484;-90
2022/03/07 10:33:07;;;;;;;19.60;10.93;;;;;;;4.76;43.69;92568.72;5074572;28;20042;-90
2022/03/07 10:35:53;;;;;;;23.50;10.05;;;;;;;4.85;42.58;92576.84;5059069;28;20484;-90
2022/03/07 10:38:21;;;;;;;20.05;9.90;;;;;;;5.38;41.90;92579.50;5074856;28;20444;-89
2022/03/07 10:40:52;;;;;;;15.38;8.77;;;;;;;4.70;42.53;92559.34;5059096;28;20036;-90
2022/03/07 10:43:18;;;;;;;19.17;9.88;;;;;;;5.30;42.25;92585.19;5075950;28;20465;-89
2022/03/07 10:45:55;;;;;;;21.67;9.73;;;;;;;4.86;42.68;92583.56;5075527;28;20546;-89
2022/03/07 10:48:25;;;;;;;20.45;10.50;;;;;;;4.89;42.68;92561.56;5076077;28;20040;-90
2022/03/07 10:50:59;;;;;;;25.25;10.68;;;;;;;4.82;43.02;92517.69;5075497;28;20428;-90
2022/03/07 10:53:26;;;;;;;13.70;8.45;;;;;;;4.38;43.15;92557.50;5058991;28;20044;-90
2022/03/07 10:56:06;;;;;;;17.98;9.85;;;;;;;4.59;44.30;92562.88;5092313;28;20030;-90
2022/03/07 10:58:50;;;;;;;17.80;9.75;;;;;;;4.47;43.65;92537.13;5058896;28;20074;-89
2022/03/07 11:02:00;;;;;;;12.30;6.85;;;;;;;5.19;42.52;92561.75;5066874;28;20047;-89
2022/03/07 11:04:33;;;;;;;16.95;9.10;;;;;;;4.39;42.25;92485.75;5056172;28;20036;-90
2022/03/07 11:10:30;;;;;;;;;;;;;;;;;;;;;
2022/03/07 11:13:28;;;;;;;13.98;8.23;;;;;;;6.00;40.52;92516.41;5062038;28;20040;-89
2022/03/07 11:16:08;;;;;;;18.33;9.43;;;;;;;5.13;40.83;92492.66;5053483;28;20056;-90
2022/03/07 11:19:02;;;;;;;;;;;;;;;;;;;;;
2022/03/07 11:21:58;;;;;;;14.52;7.55;;;;;;;5.01;41.91;92482.50;5056556;28;20490;-88
2022/03/07 11:24:57;;;;;;;18.25;9.95;;;;;;;5.24;41.53;92510.91;5089708;28;20040;-88
2022/03/07 11:27:35;;;;;;;17.15;9.15;;;;;;;4.94;42.29;92481.19;5078993;28;20101;-90
2022/03/07 11:30:31;;;;;;;;;;;;;;;;;;;;;
2022/03/07 11:33:13;;;;;;;15.40;8.38;;;;;;;5.14;41.02;92483.88;5098664;28;20039;-90
2022/03/07 11:36:32;;;;;;;;;;;;;;;;;;;;;
2022/03/07 11:39:27;;;;;;;;;;;;;;;;;;;;;
2022/03/07 11:42:37;;;;;;;18.50;10.63;;;;;;;5.43;40.93;92519.84;5049416;28;20369;-89
2022/03/07 11:45:21;;;;;;;18.55;10.10;;;;;;;5.29;40.57;92477.97;5076830;28;20043;-89
2022/03/07 11:48:31;;;;;;;18.48;9.90;;;;;;;5.66;40.81;92518.63;5061198;28;20040;-89
2022/03/07 11:52:14;;;;;;;19.60;9.65;;;;;;;4.77;41.28;92507.25;5064676;28;20044;-89
2022/03/07 11:55:09;;;;;;;12.27;6.97;;;;;;;4.79;40.63;92442.94;5085867;28;20035;-89
2022/03/07 11:58:55;;;;;;;15.30;9.13;;;;;;;5.69;40.23;92497.31;5101918;28;20028;-90
2022/03/07 12:01:55;;;;;;;13.63;7.82;;;;;;;5.20;40.54;92437.94;5040098;28;20413;-89
2022/03/07 12:05:21;;;;;;;;;;;;;;;;;;;;;
2022/03/07 12:09:24;;;;;;;17.52;9.43;;;;;;;6.16;38.55;92428.84;5064882;28;20060;-90
2022/03/07 12:12:08;;;;;;;17.45;9.57;;;;;;;5.81;38.80;92443.34;5071210;28;20063;-90
2022/03/07 12:15:34;;;;;;;14.07;8.10;;;;;;;6.12;38.35;92435.59;5092558;28;20043;-90
2022/03/07 12:18:30;;;;;;;18.80;9.93;;;;;;;6.32;38.96;92473.81;5074021;28;20040;-92
2022/03/07 12:21:30;;;;;;;16.63;9.18;;;;;;;6.55;38.42;92445.72;5039541;28;20048;-91
2022/03/07 12:24:43;;;;;;;14.32;7.68;;;;;;;6.16;39.50;92454.06;5069496;28;20040;-91
2022/03/07 12:27:47;;;;;;;;;;;;;;;;;;;;;
2022/03/07 12:30:44;;;;;;;14.05;7.55;;;;;;;6.14;39.30;92463.94;5086813;28;20044;-91
2022/03/07 12:34:10;;;;;;;21.08;11.13;;;;;;;5.63;39.72;92400.44;5084752;28;20085;-90
2022/03/07 12:37:08;;;;;;;21.50;10.48;;;;;;;5.67;39.56;92379.91;5088386;28;20039;-92
2022/03/07 12:39:58;;;;;;;17.25;10.32;;;;;;;5.95;38.92;92383.88;5116494;28;20109;-91
2022/03/07 12:43:10;;;;;;;;;;;;;;;;;;;;;
2022/03/07 12:46:06;;;;;;;;;;;;;;;;;;;;;
2022/03/07 12:49:25;;;;;;;17.65;8.95;;;;;;;5.81;38.78;92386.19;5058064;28;20048;-90
2022/03/07 12:52:45;;;;;;;19.90;10.50;;;;;;;5.77;40.01;92379.94;5058616;28;20053;-90
2022/03/07 12:55:39;;;;;;;19.35;10.20;;;;;;;6.31;38.67;92391.66;5045624;28;20039;-90
2022/03/07 12:58:18;;;;;;;;;;;;;;;;;;;;;
2022/03/07 13:01:19;;;;;;;;;;;;;;;;;;;;;
2022/03/07 13:04:40;;;;;;;;;;;;;;;;;;;;;
2022/03/07 13:07:39;;;;;;;16.52;9.05;;;;;;;6.60;36.61;92385.91;5058084;28;20040;-91
2022/03/07 13:10:25;;;;;;;15.77;8.77;;;;;;;6.03;38.35;92346.19;5056347;28;20052;-91
2022/03/07 13:13:19;;;;;;;;;;;;;;;;;;;;;
2022/03/07 13:16:28;;;;;;;18.35;9.40;;;;;;;6.40;37.68;92351.09;5076670;28;20393;-90
2022/03/07 13:19:13;;;;;;;21.70;9.98;;;;;;;5.55;38.35;92372.38;5056660;28;20045;-91
2022/03/07 13:28:40;;;;;;;16.80;9.10;;;;;;;5.64;39.07;92342.25;5036953;28;20146;-91
2022/03/07 13:31:16;;;;;;;15.82;8.75;;;;;;;6.50;38.27;92396.31;5083182;28;20491;-91
2022/03/07 13:34:00;;;;;;;21.80;10.75;;;;;;;6.22;38.04;92362.03;5048973;28;20052;-91
2022/03/07 13:37:30;;;;;;;;;;;;;;;;;;;;;
2022/03/07 13:40:21;;;;;;;16.30;8.43;;;;;;;5.77;37.53;92319.44;5066135;28;20100;-91
2022/03/07 13:43:30;;;;;;;19.35;10.20;;;;;;;6.38;36.36;92316.78;5076857;28;20040;-92
2022/03/07 13:46:26;;;;;;;18.80;9.75;;;;;;;6.09;36.72;92362.56;5073600;28;20044;-91
2022/03/07 13:49:09;;;;;;;17.73;9.80;;;;;;;6.39;36.66;92305.31;5040680;28;20392;-92
2022/03/07 13:51:58;;;;;;;19.45;9.95;;;;;;;6.40;36.77;92356.28;5072872;28;20094;-91
2022/03/07 13:54:49;;;;;;;15.10;8.43;;;;;;;6.88;35.56;92324.66;5040536;28;20040;-90
2022/03/07 13:58:00;;;;;;;17.80;9.27;;;;;;;6.84;36.27;92329.63;5073351;28;20054;-91
2022/03/07 14:01:02;;;;;;;17.52;9.80;;;;;;;6.82;36.34;92354.34;5048374;28;20048;-89
2022/03/07 14:03:47;;;;;;;17.77;9.68;;;;;;;6.90;35.79;92368.66;5048195;28;20038;-91
2022/03/07 14:07:23;;;;;;;19.48;10.07;;;;;;;6.46;36.68;92303.25;5045691;28;20036;-91
2022/03/07 14:10:11;;;;;;;20.42;10.75;;;;;;;6.42;37.04;92304.81;5049344;28;20044;-91
2022/03/07 14:12:55;;;;;;;;;;;;;;;;;;;;;
2022/03/07 14:15:36;;;;;;;15.27;8.05;;;;;;;6.54;36.11;92329.75;5094189;28;20681;-91
2022/03/07 14:18:31;;;;;;;18.08;9.10;;;;;;;6.63;36.79;92322.94;5059003;28;20028;-91
2022/03/07 14:21:41;;;;;;;18.48;9.68;;;;;;;6.42;36.36;92283.22;5073626;28;20055;-91
2022/03/07 14:24:24;;;;;;;20.50;10.63;;;;;;;6.56;36.21;92312.06;5042582;28;20148;-90
2022/03/07 14:27:23;;;;;;;;;;;;;;;;;;;;;
2022/03/07 14:30:03;;;;;;;;;;;;;;;;;;;;;
2022/03/07 14:32:57;;;;;;;22.20;11.75;;;;;;;6.57;37.88;92300.59;5042401;28;20040;-90
2022/03/07 14:35:48;;;;;;;16.98;9.73;;;;;;;6.58;37.60;92294.38;5042159;28;20037;-91
2022/03/07 14:39:02;;;;;;;20.60;9.77;;;;;;;6.19;37.22;92294.97;5065111;28;20042;-90
2022/03/07 14:42:11;;;;;;;;;;;;;;;;;;;;;
2022/03/07 14:45:20;;;;;;;15.43;8.52;;;;;;;6.32;37.88;92328.22;5072521;28;20036;-92
2022/03/07 14:48:31;;;;;;;;;;;;;;;;;;;;;
2022/03/07 14:51:26;;;;;;;21.17;10.57;;;;;;;6.08;38.29;92309.81;5077174;28;20032;-91